Time;durP1;ratioP1;P1;durP2;ratioP2;P2;SDS_P1;SDS_P2;PMS_P1;PMS_P2;Temp;Humidity;BMP_temperature;BMP_pressure;BME280_temperature;BME280_humidity;BME280_pressure;Samples;Min_cycle;Max_cycle;Signal;HPM_P1;HPM_P2
2022/03/28 00:00:56;;;;;;;10.88;8.82;;;27.70;99.90;;;;;;4118666;28;20042;-68
2022/03/28 00:03:03;;;;;;;10.10;8.05;;;27.70;99.90;;;;;;4118866;28;20042;-69
2022/03/28 00:05:09;;;;;;;9.05;7.88;;;27.70;99.90;;;;;;4118126;28;20261;-68
2022/03/28 00:07:15;;;;;;;8.77;7.85;;;27.70;99.90;;;;;;4089408;29;20055;-69
2022/03/28 00:09:21;;;;;;;11.85;8.52;;;27.80;99.90;;;;;;4117380;28;20139;-68
2022/03/28 00:11:27;;;;;;;9.75;7.68;;;27.80;99.90;;;;;;4117569;28;20153;-68
2022/03/28 00:13:35;;;;;;;11.80;8.25;;;27.90;99.90;;;;;;4124718;28;20577;-69
2022/03/28 00:15:44;;;;;;;10.48;7.65;;;27.90;99.90;;;;;;4126468;28;20485;-68
2022/03/28 00:18:04;;;;;;;10.68;8.45;;;27.90;99.90;;;;;;4126017;28;20165;-69
2022/03/28 00:20:11;;;;;;;11.77;8.20;;;27.90;99.90;;;;;;4110368;28;20050;-67
2022/03/28 00:22:19;;;;;;;13.65;8.80;;;27.90;99.90;;;;;;4121179;28;20061;-66
2022/03/28 00:24:26;;;;;;;12.00;9.05;;;27.90;99.90;;;;;;4111287;28;20053;-66
2022/03/28 00:26:35;;;;;;;14.13;9.60;;;28.00;99.90;;;;;;4111291;28;20050;-71
2022/03/28 00:28:40;;;;;;;11.13;9.05;;;27.80;99.90;;;;;;4126560;28;20046;-68
2022/03/28 00:30:46;;;;;;;11.27;9.02;;;27.80;99.90;;;;;;4125646;28;20050;-69
2022/03/28 00:32:53;;;;;;;9.60;8.02;;;27.80;99.90;;;;;;4110376;28;20058;-70
2022/03/28 00:35:00;;;;;;;11.13;8.30;;;27.80;99.90;;;;;;4126122;28;20054;-69
2022/03/28 00:37:05;;;;;;;14.73;9.02;;;27.90;99.90;;;;;;4125779;28;20076;-69
2022/03/28 00:39:20;;;;;;;12.55;8.93;;;27.80;99.90;;;;;;4155676;28;20048;-70
2022/03/28 00:41:27;;;;;;;11.80;9.52;;;27.90;99.90;;;;;;4167233;28;20041;-70
2022/03/28 00:43:33;;;;;;;13.50;8.52;;;27.90;99.90;;;;;;4165883;28;20041;-68
2022/03/28 00:45:41;;;;;;;14.43;8.48;;;27.90;99.90;;;;;;4160114;28;20569;-70
2022/03/28 00:47:47;;;;;;;13.88;8.68;;;27.90;99.90;;;;;;4159601;28;20431;-69
2022/03/28 00:49:55;;;;;;;13.95;8.23;;;27.90;99.90;;;;;;4158975;28;20037;-70
2022/03/28 00:52:02;;;;;;;10.20;7.75;;;27.90;99.90;;;;;;4157548;28;20491;-70
2022/03/28 00:54:09;;;;;;;9.02;7.53;;;27.90;99.90;;;;;;4158972;28;20459;-69
2022/03/28 00:56:15;;;;;;;9.00;7.45;;;27.90;99.90;;;;;;4160095;28;20041;-68
2022/03/28 00:58:22;;;;;;;9.90;7.43;;;27.80;99.90;;;;;;4156515;28;20049;-68
2022/03/28 01:00:29;;;;;;;8.40;7.13;;;27.80;99.90;;;;;;4159273;28;20053;-68
2022/03/28 01:02:36;;;;;;;9.38;7.30;;;27.80;99.90;;;;;;4157105;28;20182;-68
2022/03/28 01:04:42;;;;;;;9.30;6.68;;;27.80;99.90;;;;;;4157182;28;20069;-67
2022/03/28 01:07:03;;;;;;;11.18;7.32;;;27.80;99.90;;;;;;4157112;28;20084;-69
2022/03/28 01:09:10;;;;;;;9.23;7.32;;;27.80;99.90;;;;;;4110961;28;20058;-69
2022/03/28 01:11:17;;;;;;;10.77;7.90;;;27.80;99.90;;;;;;4160663;28;20049;-70
2022/03/28 01:13:25;;;;;;;11.38;7.65;;;27.80;99.90;;;;;;4157869;28;20053;-69
2022/03/28 01:15:30;;;;;;;10.85;7.72;;;27.80;99.90;;;;;;4158503;28;20076;-70
2022/03/28 01:19:57;;;;;;;14.82;9.07;;;27.90;99.90;;;;;;4160150;28;20050;-70
2022/03/28 01:22:03;;;;;;;14.45;9.32;;;28.00;99.90;;;;;;4161075;28;20045;-70
2022/03/28 01:24:13;;;;;;;13.93;9.45;;;28.00;99.90;;;;;;4162135;28;20072;-69
2022/03/28 01:26:22;;;;;;;10.70;8.98;;;28.00;99.90;;;;;;4159903;28;20133;-70
2022/03/28 01:28:27;;;;;;;11.80;8.55;;;28.00;99.90;;;;;;4161750;28;20053;-70
2022/03/28 01:30:33;;;;;;;11.63;8.50;;;28.00;99.90;;;;;;4162356;28;20053;-69
2022/03/28 01:32:40;;;;;;;9.48;7.60;;;28.00;99.90;;;;;;4162902;28;20041;-69
2022/03/28 01:34:46;;;;;;;9.88;7.85;;;28.00;99.90;;;;;;4162723;28;20044;-70
2022/03/28 01:36:53;;;;;;;11.02;8.02;;;27.90;99.90;;;;;;4162869;28;20041;-69
2022/03/28 01:39:00;;;;;;;9.90;7.78;;;28.00;99.90;;;;;;4160610;28;20640;-70
2022/03/28 01:41:05;;;;;;;11.10;8.25;;;28.00;99.90;;;;;;4162026;28;20061;-69
2022/03/28 01:43:10;;;;;;;9.55;7.82;;;27.90;99.90;;;;;;4146504;28;20104;-69
2022/03/28 01:45:23;;;;;;;11.30;8.15;;;27.90;99.90;;;;;;4160778;28;20065;-70
2022/03/28 01:47:28;;;;;;;10.13;8.93;;;28.00;99.90;;;;;;4146413;28;20053;-69
2022/03/28 01:49:35;;;;;;;11.15;8.82;;;28.10;99.90;;;;;;4162539;28;20053;-70
2022/03/28 01:51:41;;;;;;;14.48;9.30;;;28.20;99.90;;;;;;4162813;28;20144;-70
2022/03/28 01:53:47;;;;;;;12.73;8.98;;;28.30;99.90;;;;;;4161778;28;20737;-69
2022/03/28 01:56:06;;;;;;;11.55;8.55;;;28.20;99.90;;;;;;4158753;28;20040;-70
2022/03/28 01:58:15;;;;;;;11.65;8.80;;;28.30;99.90;;;;;;4172995;28;20087;-69
2022/03/28 02:00:23;;;;;;;9.68;8.25;;;28.30;99.90;;;;;;4161259;28;20044;-70
2022/03/28 02:02:33;;;;;;;10.93;8.93;;;28.40;99.90;;;;;;4159250;28;20061;-67
2022/03/28 02:04:41;;;;;;;12.93;8.70;;;28.30;99.90;;;;;;4162378;28;20048;-68
2022/03/28 02:06:46;;;;;;;11.98;8.95;;;28.20;99.90;;;;;;4158519;28;20169;-69
2022/03/28 02:08:51;;;;;;;11.68;8.90;;;28.20;99.90;;;;;;4161016;28;20556;-69
2022/03/28 02:10:59;;;;;;;9.13;7.75;;;28.10;99.90;;;;;;4161145;28;20054;-69
2022/03/28 02:13:06;;;;;;;11.07;7.95;;;28.10;99.90;;;;;;4143146;28;20037;-69
2022/03/28 02:15:14;;;;;;;9.05;7.25;;;28.10;99.90;;;;;;4159559;28;20057;-69
2022/03/28 02:17:22;;;;;;;10.23;8.30;;;28.10;99.90;;;;;;4161888;28;20103;-69
2022/03/28 02:19:29;;;;;;;8.48;7.40;;;28.10;99.90;;;;;;4156895;28;20107;-69
2022/03/28 02:21:40;;;;;;;10.02;7.90;;;28.10;99.90;;;;;;4162802;28;20084;-70
2022/03/28 02:23:48;;;;;;;10.20;8.07;;;28.10;99.90;;;;;;4186867;28;20039;-70
2022/03/28 02:26:03;;;;;;;10.05;8.10;;;28.10;99.90;;;;;;4139838;28;20038;-70
2022/03/28 02:28:11;;;;;;;10.45;7.97;;;28.10;99.90;;;;;;4160886;28;20045;-67
2022/03/28 02:30:21;;;;;;;19.73;9.20;;;28.10;99.90;;;;;;4162898;28;20041;-69
2022/03/28 02:32:28;;;;;;;16.63;10.63;;;28.10;99.90;;;;;;4161945;28;20045;-69
2022/03/28 02:34:36;;;;;;;13.38;8.38;;;28.00;99.80;;;;;;4169739;28;20576;-69
2022/03/28 02:36:43;;;;;;;9.05;7.40;;;28.10;99.80;;;;;;4168327;28;20117;-69
2022/03/28 02:38:48;;;;;;;11.35;8.45;;;28.20;99.70;;;;;;4162159;28;20041;-69
2022/03/28 02:40:55;;;;;;;11.80;7.80;;;28.30;99.60;;;;;;4103042;28;20047;-70
2022/03/28 02:43:00;;;;;;;8.68;7.63;;;28.40;99.50;;;;;;4163223;28;20124;-69
2022/03/28 02:45:22;;;;;;;11.27;7.75;;;28.60;99.20;;;;;;4160328;28;20057;-69
2022/03/28 02:47:31;;;;;;;12.68;7.82;;;28.80;99.10;;;;;;4113224;28;20062;-69
2022/03/28 02:49:38;;;;;;;11.43;7.30;;;29.00;98.90;;;;;;4186503;28;20044;-69
2022/03/28 02:51:44;;;;;;;14.48;8.98;;;29.10;98.60;;;;;;4162205;28;20034;-69
2022/03/28 02:53:50;;;;;;;10.48;8.80;;;29.10;98.80;;;;;;4161913;28;20199;-69
2022/03/28 02:55:58;;;;;;;10.10;9.02;;;28.90;98.90;;;;;;4160348;28;20068;-69
2022/03/28 02:58:03;;;;;;;10.18;8.85;;;28.80;99.00;;;;;;4162376;28;20041;-69
2022/03/28 03:00:12;;;;;;;11.18;8.57;;;28.80;99.10;;;;;;4153325;28;20054;-69
2022/03/28 03:02:24;;;;;;;11.57;8.95;;;28.70;99.20;;;;;;4161806;28;20053;-69
2022/03/28 03:04:31;;;;;;;12.77;8.77;;;28.70;99.40;;;;;;4160321;28;20050;-69
2022/03/28 03:06:39;;;;;;;12.63;8.82;;;28.80;99.40;;;;;;4157117;28;20104;-69
2022/03/28 03:08:45;;;;;;;12.00;8.40;;;28.80;99.30;;;;;;4145194;28;20050;-70
2022/03/28 03:10:50;;;;;;;10.93;8.95;;;28.80;99.10;;;;;;4162671;28;20537;-70
2022/03/28 03:13:01;;;;;;;12.50;9.50;;;28.70;99.30;;;;;;4144853;28;20512;-70
2022/03/28 03:15:08;;;;;;;10.60;8.90;;;28.70;99.00;;;;;;4159375;28;20103;-70
2022/03/28 03:17:13;;;;;;;9.70;8.25;;;28.70;99.10;;;;;;4156586;28;20492;-70
2022/03/28 03:19:23;;;;;;;10.13;8.40;;;28.60;99.00;;;;;;4158179;28;20044;-69
2022/03/28 03:21:38;;;;;;;10.63;8.60;;;28.70;99.00;;;;;;4157349;28;20098;-69
2022/03/28 03:23:43;;;;;;;12.10;8.73;;;28.90;98.80;;;;;;4160204;28;20102;-70
2022/03/28 03:25:49;;;;;;;10.40;9.25;;;28.90;98.70;;;;;;4160628;28;20366;-69
2022/03/28 03:27:57;;;;;;;10.55;9.02;;;28.90;98.80;;;;;;4159512;28;20052;-70
2022/03/28 03:30:02;;;;;;;11.93;8.70;;;28.70;99.20;;;;;;4160964;28;20038;-68
2022/03/28 03:32:10;;;;;;;9.38;8.35;;;28.50;99.40;;;;;;4162933;28;20052;-68
2022/03/28 03:34:17;;;;;;;12.38;8.30;;;28.60;99.40;;;;;;4173178;28;20127;-69
2022/03/28 03:36:22;;;;;;;12.52;9.07;;;28.60;99.30;;;;;;4159058;28;20583;-69
2022/03/28 03:38:27;;;;;;;11.98;8.77;;;28.60;99.50;;;;;;4159398;28;20496;-69
2022/03/28 03:40:45;;;;;;;11.85;8.15;;;28.40;99.50;;;;;;4161492;28;20038;-69
2022/03/28 03:43:02;;;;;;;10.50;7.68;;;28.60;99.40;;;;;;4156840;28;20048;-71
2022/03/28 03:45:11;;;;;;;11.00;8.00;;;28.60;99.20;;;;;;4162278;28;20132;-68
2022/03/28 03:47:23;;;;;;;13.23;7.90;;;28.70;99.20;;;;;;4160949;28;20508;-68
2022/03/28 03:49:28;;;;;;;10.18;7.55;;;28.70;99.20;;;;;;4160728;28;20534;-68
2022/03/28 03:51:36;;;;;;;9.77;7.43;;;28.70;99.10;;;;;;4156949;28;20133;-69
2022/03/28 03:53:45;;;;;;;10.65;7.82;;;28.70;99.00;;;;;;4162003;28;20041;-67
2022/03/28 03:55:50;;;;;;;12.70;8.00;;;28.80;99.00;;;;;;4162612;28;20049;-68
2022/03/28 03:57:57;;;;;;;8.90;7.60;;;28.80;99.00;;;;;;4158716;28;20377;-67
2022/03/28 04:00:05;;;;;;;9.30;7.50;;;28.60;99.40;;;;;;4162824;28;20099;-68
2022/03/28 04:02:19;;;;;;;9.32;7.10;;;28.60;99.30;;;;;;4158582;28;20128;-67
2022/03/28 04:04:28;;;;;;;10.40;7.13;;;28.60;99.50;;;;;;4160882;28;20137;-68
2022/03/28 04:06:39;;;;;;;9.63;7.20;;;28.70;99.20;;;;;;4160534;28;20088;-68
2022/03/28 04:08:47;;;;;;;9.27;7.40;;;28.70;99.00;;;;;;4131852;28;20057;-68
2022/03/28 04:10:57;;;;;;;8.55;6.90;;;28.70;99.00;;;;;;4156653;28;20047;-68
2022/03/28 04:13:04;;;;;;;8.63;6.90;;;28.60;98.90;;;;;;4161153;28;20034;-68
2022/03/28 04:15:10;;;;;;;8.50;7.25;;;28.50;99.00;;;;;;4159598;28;20041;-68
2022/03/28 04:17:16;;;;;;;10.30;6.93;;;28.60;99.10;;;;;;4159389;28;20041;-68
2022/03/28 04:19:24;;;;;;;10.15;7.47;;;28.60;99.00;;;;;;4159266;28;20041;-68
2022/03/28 04:21:32;;;;;;;9.18;7.20;;;28.70;99.10;;;;;;4160625;28;20149;-68
2022/03/28 04:23:37;;;;;;;10.55;7.65;;;28.70;99.00;;;;;;4157844;28;20477;-67
2022/03/28 04:25:44;;;;;;;10.63;7.70;;;28.70;99.00;;;;;;4158842;28;20045;-68
2022/03/28 04:27:51;;;;;;;11.60;7.32;;;28.70;99.30;;;;;;4161034;28;20354;-69
2022/03/28 04:29:55;;;;;;;10.00;6.95;;;28.70;99.10;;;;;;4159286;28;20049;-69
2022/03/28 04:32:03;;;;;;;8.57;6.75;;;28.70;98.90;;;;;;4161923;28;20079;-68
2022/03/28 04:34:11;;;;;;;9.68;7.07;;;28.60;99.10;;;;;;4162444;28;20045;-68
2022/03/28 04:36:17;;;;;;;7.57;6.55;;;28.60;99.20;;;;;;4159504;28;20051;-68
2022/03/28 04:38:25;;;;;;;9.10;6.70;;;28.50;98.90;;;;;;4169968;28;20113;-68
2022/03/28 04:40:34;;;;;;;8.20;6.72;;;28.40;99.20;;;;;;4157569;28;20509;-69
2022/03/28 04:42:41;;;;;;;8.38;6.18;;;28.50;99.10;;;;;;4159172;28;20093;-68
2022/03/28 04:44:48;;;;;;;7.55;6.28;;;28.40;99.10;;;;;;4162524;28;20052;-68
2022/03/28 04:46:56;;;;;;;9.88;6.75;;;28.40;99.00;;;;;;4159361;28;20072;-68
2022/03/28 04:49:02;;;;;;;9.15;5.95;;;28.50;99.10;;;;;;4143328;28;20038;-69
2022/03/28 04:51:09;;;;;;;7.97;5.90;;;28.50;98.90;;;;;;4161927;28;20045;-68
2022/03/28 04:53:18;;;;;;;8.70;6.50;;;28.50;98.50;;;;;;4185183;28;20044;-68
2022/03/28 04:55:27;;;;;;;6.95;6.10;;;28.50;98.80;;;;;;4159799;28;20570;-68
2022/03/28 04:57:34;;;;;;;7.03;5.68;;;28.50;98.60;;;;;;4162499;28;20049;-68
2022/03/28 04:59:42;;;;;;;7.15;6.22;;;28.40;99.00;;;;;;4158822;28;20046;-68
2022/03/28 05:01:48;;;;;;;7.75;6.28;;;28.50;99.30;;;;;;4156483;28;20172;-68
2022/03/28 05:03:56;;;;;;;7.20;5.95;;;28.60;99.00;;;;;;4156647;28;20077;-68
2022/03/28 05:06:08;;;;;;;10.30;6.57;;;28.70;98.70;;;;;;4157447;28;20042;-69
2022/03/28 05:08:13;;;;;;;12.82;6.53;;;28.70;98.60;;;;;;4159091;28;20516;-68
2022/03/28 05:10:21;;;;;;;7.55;6.07;;;28.60;98.50;;;;;;4159774;28;20053;-69
2022/03/28 05:12:28;;;;;;;9.93;5.97;;;28.60;98.60;;;;;;4135225;28;20066;-67
2022/03/28 05:14:34;;;;;;;10.52;5.60;;;28.60;98.60;;;;;;4157580;28;20063;-68
2022/03/28 05:16:39;;;;;;;6.88;5.35;;;28.70;98.40;;;;;;4158469;28;20049;-67
2022/03/28 05:18:46;;;;;;;7.32;5.72;;;28.80;98.30;;;;;;4158742;28;20049;-68
2022/03/28 05:20:52;;;;;;;11.90;5.90;;;28.80;98.00;;;;;;4160531;28;20084;-68
2022/03/28 05:22:57;;;;;;;6.78;5.13;;;28.90;98.10;;;;;;4162858;28;20124;-68
2022/03/28 05:25:05;;;;;;;8.23;5.32;;;29.00;98.20;;;;;;4159833;28;20132;-66
2022/03/28 05:27:11;;;;;;;8.55;5.38;;;29.00;98.10;;;;;;4161745;28;20049;-69
2022/03/28 05:29:23;;;;;;;6.88;5.30;;;29.00;97.90;;;;;;4157472;28;20088;-67
2022/03/28 05:31:32;;;;;;;11.80;5.50;;;28.90;97.90;;;;;;4159462;28;20041;-67
2022/03/28 05:33:37;;;;;;;6.35;5.53;;;28.90;97.90;;;;;;4159855;28;20038;-68
2022/03/28 05:35:44;;;;;;;7.25;5.57;;;28.90;97.70;;;;;;4158403;28;20037;-68
2022/03/28 05:37:49;;;;;;;6.45;5.13;;;29.00;97.70;;;;;;4175142;28;20068;-68
2022/03/28 05:39:55;;;;;;;7.32;5.80;;;29.00;97.60;;;;;;4170119;28;20048;-69
2022/03/28 05:42:03;;;;;;;7.28;5.40;;;28.90;97.70;;;;;;4159076;28;20493;-69
2022/03/28 05:44:21;;;;;;;9.07;5.20;;;28.90;97.70;;;;;;4159123;28;20042;-68
2022/03/28 05:46:35;;;;;;;7.88;4.95;;;28.90;97.80;;;;;;4160965;28;20045;-69
2022/03/28 05:48:44;;;;;;;7.22;5.10;;;29.00;97.90;;;;;;4160332;28;20038;-66
2022/03/28 05:50:52;;;;;;;7.70;5.00;;;29.00;97.80;;;;;;4160430;28;20046;-69
2022/03/28 05:52:58;;;;;;;8.30;5.55;;;29.10;97.70;;;;;;4158133;28;20393;-69
2022/03/28 05:55:06;;;;;;;6.68;5.55;;;29.20;97.40;;;;;;4185369;28;20149;-69
2022/03/28 05:57:19;;;;;;;7.90;5.22;;;29.30;97.00;;;;;;4168897;28;20152;-69
2022/03/28 05:59:32;;;;;;;7.68;5.07;;;29.40;96.90;;;;;;4160319;28;20091;-69
2022/03/28 06:01:40;;;;;;;7.10;4.90;;;29.50;96.70;;;;;;4140959;28;20044;-68
2022/03/28 06:03:46;;;;;;;6.90;4.90;;;29.70;96.40;;;;;;4116992;28;20035;-68
2022/03/28 06:05:53;;;;;;;5.97;4.85;;;29.80;96.10;;;;;;4160852;28;20037;-67
2022/03/28 06:07:59;;;;;;;6.22;4.68;;;29.90;96.30;;;;;;4141510;28;20144;-69
2022/03/28 06:10:05;;;;;;;10.68;4.90;;;30.00;95.90;;;;;;4111870;28;20073;-69
2022/03/28 06:12:13;;;;;;;6.40;5.07;;;30.10;95.60;;;;;;4164842;28;20071;-69
2022/03/28 06:14:23;;;;;;;6.93;4.70;;;30.10;95.70;;;;;;4156454;28;20064;-66
2022/03/28 06:16:33;;;;;;;6.05;5.20;;;30.00;95.40;;;;;;4109915;28;20093;-70
2022/03/28 06:18:38;;;;;;;6.60;4.88;;;29.60;95.80;;;;;;4123772;28;20042;-70
2022/03/28 06:20:45;;;;;;;6.18;5.20;;;29.70;96.30;;;;;;4157261;28;20046;-70
2022/03/28 06:22:52;;;;;;;6.13;4.65;;;29.80;96.00;;;;;;4156314;28;20136;-69
2022/03/28 06:25:02;;;;;;;6.68;5.00;;;29.80;95.70;;;;;;4154243;28;20049;-70
2022/03/28 06:27:40;;;;;;;7.43;5.03;;;29.40;96.20;;;;;;4164616;28;20136;-70
2022/03/28 06:29:54;;;;;;;7.32;5.45;;;29.60;96.10;;;;;;4131042;28;20790;-70
2022/03/28 06:32:00;;;;;;;7.60;5.15;;;29.60;96.10;;;;;;4139149;28;20112;-69
2022/03/28 06:34:10;;;;;;;6.70;5.28;;;29.40;96.30;;;;;;4139939;28;20065;-71
2022/03/28 06:36:23;;;;;;;4.93;4.43;;;29.50;96.20;;;;;;4131945;28;20051;-71
2022/03/28 06:38:30;;;;;;;9.15;5.30;;;29.70;96.20;;;;;;4140738;28;20603;-70
2022/03/28 06:40:36;;;;;;;6.10;5.30;;;29.80;95.90;;;;;;4140400;28;20394;-70
2022/03/28 06:42:44;;;;;;;6.65;4.70;;;29.90;95.70;;;;;;4139071;28;20038;-71
2022/03/28 06:44:50;;;;;;;5.97;4.95;;;30.10;95.60;;;;;;4132242;28;20099;-71
2022/03/28 06:46:57;;;;;;;5.45;4.78;;;30.20;95.30;;;;;;4108654;28;20502;-72
2022/03/28 06:49:04;;;;;;;5.78;4.55;;;30.30;95.00;;;;;;4140642;28;20816;-65
2022/03/28 06:51:12;;;;;;;6.18;4.78;;;30.10;94.70;;;;;;4124116;28;20046;-70
2022/03/28 06:53:23;;;;;;;6.57;5.10;;;30.20;95.10;;;;;;4140101;28;20045;-70
2022/03/28 06:55:30;;;;;;;6.25;4.85;;;30.30;94.80;;;;;;4123770;28;20078;-70
2022/03/28 06:57:38;;;;;;;7.72;5.13;;;30.40;95.10;;;;;;4137975;28;20081;-70
2022/03/28 06:59:45;;;;;;;6.28;4.60;;;30.40;94.70;;;;;;4140856;28;20046;-71
2022/03/28 07:01:54;;;;;;;5.32;4.57;;;30.20;94.90;;;;;;4141441;28;20074;-71
2022/03/28 07:04:03;;;;;;;7.80;5.18;;;30.10;94.70;;;;;;4131157;28;20053;-70
2022/03/28 07:06:13;;;;;;;7.00;5.30;;;30.10;95.10;;;;;;4119920;28;20038;-70
2022/03/28 07:08:23;;;;;;;;;;;30.00;94.80;;;;;;4155967;28;20057;-71
2022/03/28 07:10:41;;;;;;;7.60;5.05;;;29.90;94.70;;;;;;4111945;28;20390;-70
2022/03/28 07:12:59;;;;;;;6.15;5.18;;;30.10;94.90;;;;;;4139411;28;20083;-70
2022/03/28 07:15:07;;;;;;;10.43;5.30;;;30.30;94.70;;;;;;4138801;28;20061;-70
2022/03/28 07:17:13;;;;;;;5.65;4.85;;;30.50;94.60;;;;;;4133812;28;20077;-69
2022/03/28 07:19:20;;;;;;;6.68;4.53;;;30.50;94.40;;;;;;4134676;28;20045;-69
2022/03/28 07:21:29;;;;;;;8.27;4.95;;;30.60;94.40;;;;;;4108120;28;20078;-70
2022/03/28 07:23:43;;;;;;;8.25;5.75;;;30.50;94.30;;;;;;4139899;28;20081;-69
2022/03/28 07:26:03;;;;;;;7.15;4.35;;;30.50;94.20;;;;;;4137679;28;20141;-69
2022/03/28 07:28:10;;;;;;;7.90;4.75;;;30.60;94.30;;;;;;4140189;28;20049;-70
2022/03/28 07:30:17;;;;;;;7.43;4.82;;;30.70;94.20;;;;;;4139653;28;20861;-69
2022/03/28 07:32:36;;;;;;;8.50;4.80;;;30.80;94.10;;;;;;4139686;28;20084;-70
2022/03/28 07:34:42;;;;;;;9.23;4.88;;;30.90;94.20;;;;;;4140187;28;20077;-70
2022/03/28 07:36:49;;;;;;;5.70;4.75;;;30.90;94.10;;;;;;4139162;28;20042;-70
2022/03/28 07:38:57;;;;;;;6.85;4.70;;;30.80;94.30;;;;;;4140162;28;20068;-70
2022/03/28 07:41:12;;;;;;;5.82;4.80;;;30.90;94.10;;;;;;4109584;28;20502;-70
2022/03/28 07:43:18;;;;;;;7.35;5.00;;;30.90;94.00;;;;;;4140387;28;20157;-70
2022/03/28 07:45:31;;;;;;;5.55;4.80;;;30.70;93.80;;;;;;4137385;28;20147;-70
2022/03/28 07:47:39;;;;;;;8.15;4.70;;;30.70;93.70;;;;;;4106506;28;20051;-69
2022/03/28 07:49:45;;;;;;;5.18;4.20;;;30.60;94.20;;;;;;4124246;28;20062;-70
2022/03/28 07:51:50;;;;;;;6.65;4.60;;;30.70;94.00;;;;;;4136929;28;20049;-71
2022/03/28 07:53:58;;;;;;;6.88;4.75;;;30.90;94.20;;;;;;4123349;28;20050;-69
2022/03/28 07:56:10;;;;;;;8.13;5.00;;;30.90;93.80;;;;;;4137424;28;20065;-70
2022/03/28 07:58:20;;;;;;;7.55;4.72;;;30.90;93.50;;;;;;4123994;28;20082;-70
2022/03/28 08:00:37;;;;;;;6.53;4.50;;;31.00;93.40;;;;;;4135933;28;20045;-69
2022/03/28 08:02:48;;;;;;;6.25;4.57;;;31.00;93.30;;;;;;4171172;28;20045;-70
2022/03/28 08:04:56;;;;;;;6.95;4.53;;;31.00;93.00;;;;;;4152890;28;20080;-70
2022/03/28 08:07:07;;;;;;;6.65;4.45;;;31.00;93.20;;;;;;4146778;28;20049;-70
2022/03/28 08:09:17;;;;;;;4.72;4.25;;;31.10;93.20;;;;;;4154117;28;20061;-70
2022/03/28 08:11:25;;;;;;;7.38;4.90;;;31.10;93.40;;;;;;4155303;28;20064;-69
2022/03/28 08:13:32;;;;;;;7.10;4.80;;;31.00;93.10;;;;;;4154969;28;20380;-69
2022/03/28 08:15:37;;;;;;;5.60;4.45;;;30.90;93.20;;;;;;4156163;28;20046;-70
2022/03/28 08:17:44;;;;;;;7.13;4.07;;;30.90;93.70;;;;;;4156977;28;20088;-70
2022/03/28 08:19:49;;;;;;;6.30;4.80;;;30.80;93.40;;;;;;4153890;28;20132;-70
2022/03/28 08:21:54;;;;;;;7.10;4.75;;;30.70;93.40;;;;;;4149130;28;20168;-70
2022/03/28 08:24:02;;;;;;;5.53;4.78;;;30.70;93.40;;;;;;4124158;28;20047;-70
2022/03/28 08:26:10;;;;;;;5.03;4.40;;;30.70;93.10;;;;;;4148668;28;20870;-70
2022/03/28 08:28:15;;;;;;;6.72;4.75;;;30.80;93.20;;;;;;4157379;28;20052;-70
2022/03/28 08:30:24;;;;;;;6.00;4.50;;;30.80;92.80;;;;;;4155630;28;20081;-70
2022/03/28 08:32:33;;;;;;;5.35;4.25;;;30.80;93.00;;;;;;4154029;28;20460;-70
2022/03/28 08:34:38;;;;;;;4.95;4.30;;;30.70;92.90;;;;;;4157156;28;20172;-69
2022/03/28 08:36:45;;;;;;;4.82;4.07;;;30.50;92.90;;;;;;4156313;28;20049;-70
2022/03/28 08:38:52;;;;;;;5.70;4.13;;;30.40;93.10;;;;;;4152725;28;20558;-69
2022/03/28 08:40:56;;;;;;;5.75;4.55;;;30.50;93.40;;;;;;4152465;28;20046;-69
2022/03/28 08:43:04;;;;;;;5.43;4.40;;;30.60;93.30;;;;;;4155748;28;20483;-70
2022/03/28 08:45:11;;;;;;;5.78;4.70;;;30.80;93.50;;;;;;4157005;28;20558;-70
2022/03/28 08:47:18;;;;;;;6.03;4.85;;;30.80;92.70;;;;;;4154599;28;20134;-71
2022/03/28 08:49:24;;;;;;;5.28;4.70;;;30.80;93.10;;;;;;4156034;28;20049;-70
2022/03/28 08:51:32;;;;;;;6.20;4.85;;;30.70;93.30;;;;;;4114448;28;20058;-70
2022/03/28 08:53:37;;;;;;;7.25;4.35;;;30.70;93.40;;;;;;4180775;28;20096;-68
2022/03/28 08:55:44;;;;;;;6.63;4.57;;;30.60;93.30;;;;;;4155485;28;20104;-70
2022/03/28 08:57:51;;;;;;;5.93;4.38;;;30.70;93.20;;;;;;4152443;28;20101;-70
2022/03/28 08:59:58;;;;;;;5.18;4.07;;;30.80;93.20;;;;;;4152779;28;20584;-70
2022/03/28 09:02:05;;;;;;;6.85;4.90;;;30.90;93.30;;;;;;4150274;28;20076;-70
2022/03/28 09:04:15;;;;;;;6.30;4.82;;;30.80;92.30;;;;;;4152570;28;20128;-70
2022/03/28 09:06:39;;;;;;;4.93;4.40;;;30.70;92.70;;;;;;4134073;28;20108;-69
2022/03/28 09:08:44;;;;;;;5.68;4.40;;;30.70;92.40;;;;;;4177764;28;20449;-70
2022/03/28 09:10:50;;;;;;;7.55;4.63;;;30.50;92.80;;;;;;4156991;28;20056;-70
2022/03/28 09:13:11;;;;;;;5.63;4.22;;;30.50;92.90;;;;;;4153755;28;20075;-69
2022/03/28 09:15:18;;;;;;;9.63;4.63;;;30.50;93.10;;;;;;4155371;28;20451;-70
2022/03/28 09:17:25;;;;;;;5.88;4.55;;;30.50;93.30;;;;;;4157391;28;20614;-70
2022/03/28 09:19:55;;;;;;;7.43;4.15;;;30.50;93.30;;;;;;4156006;28;20060;-70
2022/03/28 09:22:09;;;;;;;5.25;4.72;;;30.60;93.30;;;;;;4180543;28;20045;-70
2022/03/28 09:24:16;;;;;;;5.78;4.78;;;30.60;93.40;;;;;;4145165;28;20464;-70
2022/03/28 09:26:24;;;;;;;6.50;4.60;;;30.70;93.40;;;;;;4154996;28;20057;-70
2022/03/28 09:28:45;;;;;;;5.07;4.30;;;30.70;93.30;;;;;;4138092;28;20053;-70
2022/03/28 09:30:52;;;;;;;5.75;4.72;;;30.70;93.30;;;;;;4153798;28;20042;-70
2022/03/28 09:32:57;;;;;;;7.47;4.80;;;30.70;93.20;;;;;;4154693;28;20041;-70
2022/03/28 09:35:12;;;;;;;5.13;4.63;;;30.80;93.30;;;;;;4155416;28;20060;-70
2022/03/28 09:37:20;;;;;;;6.00;4.70;;;30.70;93.50;;;;;;4156108;28;20512;-70
2022/03/28 09:39:30;;;;;;;5.85;4.50;;;30.70;93.30;;;;;;4159866;28;20045;-70
2022/03/28 09:41:36;;;;;;;5.72;4.85;;;30.70;93.40;;;;;;4147598;28;20054;-70
2022/03/28 09:43:43;;;;;;;6.57;5.22;;;30.70;93.50;;;;;;4154513;28;20635;-70
2022/03/28 09:45:54;;;;;;;5.88;4.10;;;30.70;93.40;;;;;;4160201;28;20045;-70
2022/03/28 09:48:07;;;;;;;6.07;4.85;;;30.70;93.60;;;;;;4155577;28;20092;-70
2022/03/28 09:50:14;;;;;;;6.88;4.60;;;30.60;93.40;;;;;;4162457;28;20073;-69
2022/03/28 09:52:22;;;;;;;6.40;4.80;;;30.60;93.40;;;;;;4160669;28;20180;-70
2022/03/28 09:54:30;;;;;;;8.18;4.63;;;30.60;93.30;;;;;;4157945;28;20132;-69
2022/03/28 09:56:35;;;;;;;5.82;4.93;;;30.50;93.40;;;;;;4148600;28;20102;-70
2022/03/28 09:58:43;;;;;;;7.28;4.57;;;30.60;93.50;;;;;;4162568;28;20061;-68
2022/03/28 10:00:51;;;;;;;7.43;4.82;;;30.50;93.50;;;;;;4154350;28;20140;-68
2022/03/28 10:02:59;;;;;;;6.13;4.93;;;30.50;93.60;;;;;;4160221;28;20041;-67
2022/03/28 10:05:05;;;;;;;6.72;5.32;;;30.50;93.30;;;;;;4143296;28;20077;-68
2022/03/28 10:07:12;;;;;;;6.72;4.65;;;30.40;93.20;;;;;;4154002;28;20041;-68
2022/03/28 10:09:16;;;;;;;6.82;4.35;;;30.30;93.20;;;;;;4163584;28;20057;-67
2022/03/28 10:11:22;;;;;;;7.13;5.10;;;30.40;93.00;;;;;;4163454;28;20084;-69
2022/03/28 10:13:29;;;;;;;7.85;4.80;;;30.30;93.20;;;;;;4162413;28;20057;-68
2022/03/28 10:15:35;;;;;;;7.07;4.82;;;30.20;93.20;;;;;;4163734;28;20118;-69
2022/03/28 10:17:39;;;;;;;9.40;4.80;;;30.30;93.40;;;;;;4144545;28;20060;-68
2022/03/28 10:19:44;;;;;;;6.70;4.70;;;30.30;93.40;;;;;;4124403;28;20509;-69
2022/03/28 10:21:57;;;;;;;5.63;4.95;;;30.30;93.40;;;;;;4122619;28;20130;-69
2022/03/28 10:24:11;;;;;;;7.32;4.90;;;30.30;92.90;;;;;;4074376;28;20063;-69
2022/03/28 10:26:17;;;;;;;6.82;4.40;;;30.30;93.10;;;;;;4125654;28;20117;-68
2022/03/28 10:28:23;;;;;;;13.80;10.30;;;30.30;93.00;;;;;;4111467;28;20560;-68
2022/03/28 10:30:28;;;;;;;9.75;7.13;;;30.30;92.80;;;;;;4118599;28;20046;-69
2022/03/28 10:32:35;;;;;;;11.85;7.53;;;30.30;93.00;;;;;;4115734;28;20055;-67
2022/03/28 10:34:53;;;;;;;10.68;6.72;;;30.30;93.20;;;;;;4090206;29;20052;-69
2022/03/28 10:37:30;;;;;;;7.93;5.70;;;30.30;93.40;;;;;;4090911;29;20055;-69
2022/03/28 10:39:37;;;;;;;9.57;5.60;;;30.20;93.30;;;;;;4088995;29;20056;-70
2022/03/28 10:41:43;;;;;;;7.70;5.38;;;30.10;93.40;;;;;;4090195;28;20058;-70
2022/03/28 10:43:49;;;;;;;8.40;5.72;;;30.10;93.60;;;;;;4097949;28;20055;-70
2022/03/28 10:46:02;;;;;;;8.73;5.95;;;30.20;93.60;;;;;;4091496;29;20554;-70
2022/03/28 10:48:10;;;;;;;7.97;6.05;;;30.00;93.60;;;;;;4088869;28;20458;-68
2022/03/28 10:50:18;;;;;;;9.32;7.15;;;29.90;93.60;;;;;;4119954;28;20822;-68
2022/03/28 10:52:27;;;;;;;11.90;8.00;;;29.80;93.80;;;;;;4131495;28;20054;-68
2022/03/28 10:54:38;;;;;;;10.90;7.53;;;29.80;93.90;;;;;;4138909;28;20104;-68
2022/03/28 10:56:45;;;;;;;11.68;8.40;;;29.90;93.90;;;;;;4135374;28;20058;-69
2022/03/28 10:58:55;;;;;;;12.77;7.85;;;29.90;93.90;;;;;;4144496;28;20046;-68
2022/03/28 11:01:08;;;;;;;11.55;7.40;;;29.80;94.10;;;;;;4137825;28;20085;-68
2022/03/28 11:03:23;;;;;;;9.93;6.97;;;29.70;93.80;;;;;;4137790;28;20149;-66
2022/03/28 11:05:54;;;;;;;10.65;7.03;;;29.80;93.80;;;;;;4124195;28;20568;-66
2022/03/28 11:08:04;;;;;;;;;;;29.70;93.90;;;;;;4159111;28;20602;-66